createdAt,value
2024-02-08T00:01:55.961Z,64.83
2024-02-08T00:04:22.759Z,62.90
2024-02-08T00:06:49.454Z,61.08
2024-02-08T00:09:16.092Z,59.41
2024-02-08T00:11:42.816Z,58.69
2024-02-08T00:14:09.586Z,61.38
2024-02-08T00:16:38.354Z,64.80
2024-02-08T00:19:05.318Z,64.64
2024-02-08T00:21:33.668Z,63.25
2024-02-08T00:24:01.370Z,61.34
2024-02-08T00:26:28.058Z,60.17
2024-02-08T00:28:54.782Z,59.31
2024-02-08T00:31:21.446Z,59.57
2024-02-08T00:33:49.551Z,62.26
2024-02-08T00:36:16.409Z,65.32
2024-02-08T00:38:44.386Z,64.59
2024-02-08T00:41:11.194Z,62.05
2024-02-08T00:43:40.704Z,61.44
2024-02-08T00:46:07.792Z,60.59
2024-02-08T00:48:34.675Z,59.70
2024-02-08T00:51:01.390Z,58.29
2024-02-08T00:53:28.052Z,59.71
2024-02-08T00:55:54.718Z,63.35
2024-02-08T00:58:22.992Z,65.03
2024-02-08T01:00:50.019Z,63.12
2024-02-08T01:03:17.017Z,60.41
2024-02-08T01:05:44.465Z,59.60
2024-02-08T01:08:11.175Z,58.23
2024-02-08T01:10:38.011Z,59.50
2024-02-08T01:13:05.884Z,62.12
2024-02-08T01:15:32.696Z,65.73
2024-02-08T01:18:00.137Z,65.40
2024-02-08T01:20:29.487Z,64.53
2024-02-08T01:22:59.012Z,62.21
2024-02-08T01:25:25.683Z,61.60
2024-02-08T01:27:52.368Z,59.76
2024-02-08T01:30:19.438Z,58.15
2024-02-08T01:32:49.669Z,60.13
2024-02-08T01:35:23.381Z,63.62
2024-02-08T01:37:50.720Z,64.16
2024-02-08T01:40:18.526Z,61.84
2024-02-08T01:42:45.396Z,60.50
2024-02-08T01:45:21.518Z,59.02
2024-02-08T01:47:49.148Z,60.19
2024-02-08T01:50:16.521Z,62.15
2024-02-08T01:52:43.762Z,65.09
2024-02-08T01:55:11.247Z,64.50
2024-02-08T01:57:38.069Z,62.24
2024-02-08T02:00:05.691Z,60.49
2024-02-08T02:02:42.094Z,59.03
2024-02-08T02:05:19.001Z,59.36
2024-02-08T02:07:50.162Z,62.74
2024-02-08T02:10:18.468Z,65.39
2024-02-08T02:12:49.832Z,64.07
2024-02-08T02:15:18.507Z,62.34
2024-02-08T02:17:46.201Z,60.71
2024-02-08T02:20:14.259Z,59.90
2024-02-08T02:22:44.081Z,59.74
2024-02-08T02:25:12.130Z,58.91
2024-02-08T02:27:41.472Z,60.82
2024-02-08T02:30:17.025Z,64.30
2024-02-08T02:32:47.231Z,64.46
2024-02-08T02:35:17.871Z,63.26
2024-02-08T02:37:47.597Z,61.43
2024-02-08T02:40:24.494Z,60.45
2024-02-08T02:42:52.714Z,59.98
2024-02-08T02:45:30.265Z,59.17
2024-02-08T02:47:59.558Z,59.86
2024-02-08T02:50:26.810Z,62.52
2024-02-08T02:52:53.802Z,65.85
2024-02-08T02:55:20.650Z,64.32
2024-02-08T02:57:48.584Z,63.23
2024-02-08T03:00:39.152Z,62.23
2024-02-08T03:03:13.411Z,61.37
2024-02-08T03:05:41.534Z,60.47
2024-02-08T03:08:08.363Z,60.05
2024-02-08T03:10:39.876Z,59.13
2024-02-08T03:13:08.980Z,59.90
2024-02-08T03:18:52.201Z,66.72
2024-02-08T03:21:19.640Z,65.57
2024-02-08T03:23:48.396Z,64.18
2024-02-08T03:26:17.263Z,63.27
2024-02-08T03:28:45.270Z,62.28
2024-02-08T03:31:12.884Z,61.99
2024-02-08T03:33:39.662Z,61.20
2024-02-08T03:36:09.812Z,60.59
2024-02-08T03:38:38.867Z,60.00
2024-02-08T03:41:05.681Z,58.92
2024-02-08T03:43:34.369Z,60.01
2024-02-08T03:46:03.131Z,62.33
2024-02-08T03:48:30.308Z,65.95
2024-02-08T03:51:02.158Z,64.88
2024-02-08T03:53:29.163Z,62.92
2024-02-08T03:55:57.033Z,61.93
2024-02-08T03:58:24.964Z,60.76
2024-02-08T04:00:54.941Z,59.21
2024-02-08T04:03:41.141Z,59.00
2024-02-08T04:06:27.862Z,61.47
2024-02-08T04:09:09.792Z,65.29
2024-02-08T04:11:55.480Z,64.54
2024-02-08T04:14:40.801Z,62.75
2024-02-08T04:17:26.406Z,61.26
2024-02-08T04:20:11.847Z,60.28
2024-02-08T04:22:57.434Z,59.15
2024-02-08T04:25:42.966Z,59.53
2024-02-08T04:28:28.564Z,62.33
2024-02-08T04:31:13.964Z,65.24
2024-02-08T04:33:59.630Z,63.83
2024-02-08T04:36:45.034Z,62.09
2024-02-08T04:39:30.444Z,60.61
2024-02-08T04:42:15.984Z,60.03
2024-02-08T04:45:01.403Z,58.12
2024-02-08T04:47:46.879Z,59.10
2024-02-08T04:50:34.374Z,61.88
2024-02-08T04:53:19.572Z,65.44
2024-02-08T04:55:47.179Z,64.23
2024-02-08T04:58:36.448Z,62.67
2024-02-08T05:01:04.701Z,60.97
2024-02-08T05:03:38.270Z,60.35
2024-02-08T05:06:12.303Z,60.27
2024-02-08T05:08:40.174Z,58.68
2024-02-08T05:11:10.973Z,58.92
2024-02-08T05:13:42.084Z,61.24
2024-02-08T05:16:15.431Z,65.18
2024-02-08T05:18:46.666Z,65.40
2024-02-08T05:21:15.242Z,63.49
2024-02-08T05:23:42.988Z,61.72
2024-02-08T05:26:20.876Z,61.39
2024-02-08T05:28:47.740Z,60.73
2024-02-08T05:31:15.125Z,59.99
2024-02-08T05:33:42.430Z,58.43
2024-02-08T05:36:12.709Z,58.84
2024-02-08T05:38:42.615Z,60.44
2024-02-08T05:41:10.791Z,64.92
2024-02-08T05:43:47.575Z,66.09
2024-02-08T05:46:30.978Z,65.12
2024-02-08T05:49:12.884Z,63.32
2024-02-08T05:51:47.897Z,61.73
2024-02-08T05:54:21.877Z,60.11
2024-02-08T05:56:51.150Z,58.85
2024-02-08T05:59:19.395Z,60.53
2024-02-08T06:01:48.824Z,63.22
2024-02-08T06:04:23.884Z,64.45
2024-02-08T06:07:00.381Z,62.95
2024-02-08T06:09:46.273Z,62.52
2024-02-08T06:12:25.460Z,61.36
2024-02-08T06:15:00.438Z,60.66
2024-02-08T06:17:34.523Z,59.74
2024-02-08T06:20:02.017Z,58.18
2024-02-08T06:22:30.697Z,58.90
2024-02-08T06:25:20.719Z,60.98
2024-02-08T06:27:51.333Z,65.15
2024-02-08T06:30:23.988Z,65.78
2024-02-08T06:32:58.962Z,63.98
2024-02-08T06:35:30.068Z,62.27
2024-02-08T06:38:03.793Z,61.08
2024-02-08T06:40:50.721Z,60.37
2024-02-08T06:43:21.995Z,60.29
2024-02-08T06:45:52.863Z,58.48
2024-02-08T06:48:33.435Z,58.53
2024-02-08T06:51:22.823Z,60.75
2024-02-08T06:54:09.652Z,65.46
2024-02-08T06:56:56.200Z,65.02
2024-02-08T06:59:42.053Z,63.46
2024-02-08T07:02:28.265Z,62.15
2024-02-08T07:05:13.891Z,60.55
2024-02-08T07:08:00.438Z,58.22
2024-02-08T07:10:46.299Z,58.20
2024-02-08T07:13:31.863Z,60.43
2024-02-08T07:16:17.475Z,64.45
2024-02-08T07:19:07.143Z,64.58
2024-02-08T07:21:55.508Z,62.29
2024-02-08T07:24:41.568Z,60.81
2024-02-08T07:27:26.725Z,58.32
2024-02-08T07:30:12.408Z,58.09
2024-02-08T07:32:58.260Z,60.37
2024-02-08T07:35:43.934Z,64.06
2024-02-08T07:38:10.952Z,63.54
2024-02-08T07:40:38.511Z,61.59
2024-02-08T07:43:15.037Z,60.51
2024-02-08T07:46:05.954Z,58.13
2024-02-08T07:48:40.658Z,58.95
2024-02-08T07:51:08.196Z,61.59
2024-02-08T07:53:46.067Z,64.25
2024-02-08T07:56:25.766Z,64.72
2024-02-08T07:58:54.125Z,62.81
2024-02-08T08:01:21.435Z,59.97
2024-02-08T08:03:52.167Z,57.21
2024-02-08T08:06:19.420Z,58.87
2024-02-08T08:08:58.882Z,60.36
2024-02-08T08:11:32.444Z,61.10
2024-02-08T08:14:02.058Z,64.70
2024-02-08T08:16:32.151Z,64.84
2024-02-08T08:19:09.217Z,61.35
2024-02-08T08:21:56.642Z,58.62
2024-02-08T08:24:27.111Z,58.55
2024-02-08T08:27:08.572Z,61.10
2024-02-08T08:29:46.236Z,63.15
2024-02-08T08:32:33.356Z,62.77
2024-02-08T08:35:20.183Z,61.93
2024-02-08T08:37:47.319Z,59.92
2024-02-08T08:40:39.974Z,57.01
2024-02-08T08:43:12.082Z,57.01
2024-02-08T08:45:42.436Z,59.45
2024-02-08T08:48:09.636Z,60.17
2024-02-08T08:50:36.584Z,61.79
2024-02-08T08:53:18.113Z,64.08
2024-02-08T08:55:51.419Z,62.69
2024-02-08T08:58:23.819Z,59.21
2024-02-08T09:01:00.540Z,56.34
2024-02-08T09:03:27.570Z,57.68
2024-02-08T09:05:58.419Z,59.32
2024-02-08T09:08:35.406Z,61.30
2024-02-08T09:11:05.070Z,63.60
2024-02-08T09:13:38.559Z,63.55
2024-02-08T09:16:25.160Z,61.45
2024-02-08T09:19:03.769Z,57.25
2024-02-08T09:21:37.115Z,56.81
2024-02-08T09:24:05.343Z,58.38
2024-02-08T09:26:56.574Z,59.20
2024-02-08T09:29:30.340Z,59.96
2024-02-08T09:32:16.955Z,60.69
2024-02-08T09:34:44.756Z,61.35
2024-02-08T09:37:12.458Z,61.63
2024-02-08T09:40:00.548Z,62.34
2024-02-08T09:42:29.188Z,64.96
2024-02-08T09:45:17.766Z,60.77
2024-02-08T09:47:54.152Z,55.98
2024-02-08T09:50:37.558Z,56.15
2024-02-08T09:53:20.691Z,58.21
2024-02-08T09:55:58.475Z,58.62
2024-02-08T09:58:39.234Z,58.92
2024-02-08T10:01:45.664Z,59.24
2024-02-08T10:04:26.614Z,60.39
2024-02-08T10:06:57.090Z,61.07
2024-02-08T10:09:48.460Z,62.96
2024-02-08T10:12:22.150Z,60.69
2024-02-08T10:15:00.809Z,56.98
2024-02-08T10:17:42.929Z,57.00
2024-02-08T10:20:22.632Z,57.32
2024-02-08T10:23:11.174Z,58.68
2024-02-08T10:25:56.806Z,59.49
2024-02-08T10:28:25.031Z,60.50
2024-02-08T10:30:55.895Z,61.48
2024-02-08T10:33:25.598Z,61.01
2024-02-08T10:35:54.488Z,61.59
2024-02-08T10:38:33.809Z,62.02
2024-02-08T10:41:00.997Z,64.21
2024-02-08T10:43:35.765Z,62.37
2024-02-08T10:46:06.045Z,57.83
2024-02-08T10:48:33.429Z,55.87
2024-02-08T10:51:04.104Z,57.02
2024-02-08T10:53:50.010Z,58.10
2024-02-08T10:56:19.909Z,59.09
2024-02-08T10:58:56.896Z,59.93
2024-02-08T11:01:34.989Z,61.01
2024-02-08T11:04:08.780Z,60.82
2024-02-08T11:06:44.992Z,62.67
2024-02-08T11:09:20.089Z,61.15
2024-02-08T11:12:24.625Z,57.59
2024-02-08T11:15:01.665Z,56.36
2024-02-08T11:17:34.209Z,57.78
2024-02-08T11:20:05.053Z,59.40
2024-02-08T11:22:42.189Z,60.44
2024-02-08T11:25:20.927Z,60.49
2024-02-08T11:27:49.542Z,61.39
2024-02-08T11:30:34.806Z,62.37
2024-02-08T11:33:04.405Z,63.45
2024-02-08T11:35:37.658Z,59.75
2024-02-08T11:38:28.129Z,56.57
2024-02-08T11:40:59.244Z,56.68
2024-02-08T11:43:27.050Z,57.97
2024-02-08T11:45:58.969Z,58.90
2024-02-08T11:48:30.826Z,59.34
2024-02-08T11:51:02.009Z,58.89
2024-02-08T11:53:33.630Z,58.89
2024-02-08T11:56:10.542Z,59.29
2024-02-08T11:58:38.055Z,60.19
2024-02-08T12:01:05.784Z,60.44
2024-02-08T12:03:33.214Z,60.75
2024-02-08T12:06:02.403Z,60.30
2024-02-08T12:08:37.226Z,59.71
2024-02-08T12:11:10.723Z,60.50
2024-02-08T12:13:40.893Z,60.69
2024-02-08T12:16:08.090Z,60.24
2024-02-08T12:18:37.811Z,59.52
2024-02-08T12:21:11.891Z,59.48
2024-02-08T12:23:42.199Z,59.70
2024-02-08T12:26:13.581Z,59.18
2024-02-08T12:28:44.133Z,59.83
2024-02-08T12:31:19.146Z,60.74
2024-02-08T12:33:52.319Z,61.17
2024-02-08T12:36:25.899Z,61.78
2024-02-08T12:38:56.559Z,61.25
2024-02-08T12:41:23.995Z,61.05
2024-02-08T12:43:53.105Z,61.27
2024-02-08T12:46:23.523Z,60.88
2024-02-08T12:48:51.298Z,60.86
2024-02-08T12:51:21.866Z,61.46
2024-02-08T12:53:50.728Z,61.80
2024-02-08T12:56:20.000Z,62.12
2024-02-08T12:58:46.822Z,61.80
2024-02-08T13:01:20.051Z,61.89
2024-02-08T13:03:48.636Z,62.04
2024-02-08T13:06:15.862Z,63.07
2024-02-08T13:08:46.861Z,61.78
2024-02-08T13:11:21.798Z,56.67
2024-02-08T13:13:49.507Z,56.07
2024-02-08T13:16:18.059Z,57.30
2024-02-08T13:18:54.084Z,57.89
2024-02-08T13:21:26.290Z,58.92
2024-02-08T13:23:57.242Z,59.27
2024-02-08T13:26:30.227Z,60.61
2024-02-08T13:29:03.362Z,61.76
2024-02-08T13:31:30.277Z,64.19
2024-02-08T13:33:57.407Z,62.35
2024-02-08T13:36:26.399Z,57.65
2024-02-08T13:38:53.213Z,55.11
2024-02-08T13:41:20.763Z,56.31
2024-02-08T13:43:50.127Z,58.79
2024-02-08T13:46:17.476Z,59.96
2024-02-08T13:48:44.389Z,61.41
2024-02-08T13:51:11.925Z,62.25
2024-02-08T13:53:39.219Z,63.55
2024-02-08T13:56:13.174Z,61.91
2024-02-08T13:58:40.603Z,58.47
2024-02-08T14:01:07.788Z,55.67
2024-02-08T14:03:36.090Z,57.15
2024-02-08T14:06:03.463Z,58.05
2024-02-08T14:08:33.307Z,59.48
2024-02-08T14:11:00.609Z,60.58
2024-02-08T14:13:37.424Z,61.67
2024-02-08T14:16:16.451Z,64.35
2024-02-08T14:18:51.522Z,64.90
2024-02-08T14:21:26.764Z,60.01
2024-02-08T14:24:01.385Z,56.75
2024-02-08T14:26:39.647Z,57.26
2024-02-08T14:29:10.009Z,59.14
2024-02-08T14:31:39.768Z,60.86
2024-02-08T14:34:09.786Z,62.70
2024-02-08T14:36:40.715Z,63.95
2024-02-08T14:39:27.513Z,61.01
2024-02-08T14:41:57.183Z,57.68
2024-02-08T14:44:33.288Z,57.92
2024-02-08T14:47:08.891Z,59.42
2024-02-08T14:49:58.188Z,60.51
2024-02-08T14:52:28.174Z,61.39
2024-02-08T14:55:23.350Z,65.06
2024-02-08T14:58:00.445Z,67.22
2024-02-08T15:00:33.414Z,62.98
2024-02-08T15:03:24.679Z,60.03
2024-02-08T15:06:06.572Z,57.35
2024-02-08T15:08:47.384Z,57.97
2024-02-08T15:11:48.940Z,59.39
2024-02-08T15:14:19.972Z,59.38
2024-02-08T15:16:49.931Z,61.56
2024-02-08T15:19:23.998Z,64.76
2024-02-08T15:21:54.405Z,64.76
2024-02-08T15:24:24.715Z,61.90
2024-02-08T15:27:07.038Z,59.72
2024-02-08T15:29:46.553Z,57.54
2024-02-08T15:32:32.578Z,57.73
2024-02-08T15:35:05.712Z,58.55
2024-02-08T15:37:43.231Z,60.51
2024-02-08T15:40:16.296Z,64.45
2024-02-08T15:42:45.879Z,66.56
2024-02-08T15:52:46.975Z,57.43
2024-02-08T15:55:17.201Z,58.63
2024-02-08T15:57:57.239Z,60.60
2024-02-08T16:00:56.560Z,64.21
2024-02-08T16:03:27.762Z,65.30
2024-02-08T16:05:58.011Z,62.36
2024-02-08T16:08:36.757Z,60.04
2024-02-08T16:11:20.445Z,58.57
2024-02-08T16:14:04.341Z,57.54
2024-02-08T16:16:35.768Z,58.60
2024-02-08T16:19:22.642Z,60.52
2024-02-08T16:21:49.528Z,65.17
2024-02-08T16:24:19.260Z,65.94
2024-02-08T16:26:58.274Z,63.94
2024-02-08T16:29:36.110Z,63.58
2024-02-08T16:32:08.557Z,61.03
2024-02-08T16:34:51.461Z,58.33
2024-02-08T16:37:37.621Z,57.52
2024-02-08T16:40:19.330Z,59.73
2024-02-08T16:42:48.897Z,60.65
2024-02-08T16:45:20.136Z,64.19
2024-02-08T16:48:09.574Z,66.17
2024-02-08T16:50:46.808Z,64.31
2024-02-08T16:53:15.851Z,62.22
2024-02-08T16:55:48.583Z,59.10
2024-02-08T16:58:21.165Z,57.90
2024-02-08T17:00:56.124Z,59.35
2024-02-08T17:03:51.782Z,60.61
2024-02-08T17:06:27.849Z,65.86
2024-02-08T17:09:24.776Z,66.45
2024-02-08T17:12:01.488Z,64.30
2024-02-08T17:14:36.803Z,62.53
2024-02-08T17:17:15.120Z,61.32
2024-02-08T17:19:48.420Z,60.78
2024-02-08T17:22:25.649Z,58.50
2024-02-08T17:25:08.881Z,57.71
2024-02-08T17:27:35.554Z,59.43
2024-02-08T17:30:06.120Z,61.42
2024-02-08T17:32:44.453Z,64.96
2024-02-08T17:35:11.820Z,64.84
2024-02-08T17:37:49.613Z,62.27
2024-02-08T17:40:31.673Z,60.34
2024-02-08T17:43:10.389Z,59.72
2024-02-08T17:45:56.825Z,58.15
2024-02-08T17:48:33.806Z,59.01
2024-02-08T17:51:00.992Z,60.34
2024-02-08T17:53:31.344Z,63.75
2024-02-08T17:56:08.461Z,65.67
2024-02-08T17:58:36.242Z,63.51
2024-02-08T18:01:08.617Z,61.82
2024-02-08T18:03:37.426Z,59.85
2024-02-08T18:06:06.031Z,58.53
2024-02-08T18:08:41.085Z,59.03
2024-02-08T18:11:10.959Z,61.52
2024-02-08T18:13:39.485Z,64.77
2024-02-08T18:19:05.243Z,64.25
2024-02-08T18:21:35.368Z,61.92
2024-02-08T18:24:07.352Z,60.57
2024-02-08T18:26:36.489Z,58.77
2024-02-08T18:29:04.946Z,58.26
2024-02-08T18:31:36.441Z,59.69
2024-02-08T18:34:03.867Z,63.76
2024-02-08T18:36:31.695Z,64.98
2024-02-08T18:38:59.895Z,63.17
2024-02-08T18:41:27.568Z,62.46
2024-02-08T18:43:58.765Z,60.59
2024-02-08T18:46:30.734Z,58.43
2024-02-08T18:49:02.362Z,57.92
2024-02-08T18:51:32.252Z,60.51
2024-02-08T18:54:02.185Z,63.98
2024-02-08T18:56:32.684Z,65.27
2024-02-08T18:59:01.247Z,63.84
2024-02-08T19:01:33.234Z,61.66
2024-02-08T19:04:02.646Z,60.66
2024-02-08T19:06:29.818Z,59.99
2024-02-08T19:08:56.867Z,58.22
2024-02-08T19:11:27.786Z,57.69
2024-02-08T19:13:58.191Z,59.26
2024-02-08T19:16:33.288Z,61.22
2024-02-08T19:19:04.989Z,65.27
2024-02-08T19:21:33.274Z,65.71
2024-02-08T19:24:05.290Z,63.49
2024-02-08T19:26:38.081Z,62.52
2024-02-08T19:29:09.582Z,61.83
2024-02-08T19:31:43.716Z,60.83
2024-02-08T19:34:23.223Z,60.20
2024-02-08T19:36:55.859Z,58.32
2024-02-08T19:39:30.053Z,57.93
2024-02-08T19:41:57.491Z,59.50
2024-02-08T19:44:28.415Z,61.65
2024-02-08T19:47:13.498Z,65.28
2024-02-08T19:49:48.376Z,65.66
2024-02-08T19:52:22.741Z,63.67
2024-02-08T19:54:57.887Z,62.05
2024-02-08T19:57:36.855Z,60.53
2024-02-08T20:00:11.062Z,58.71
2024-02-08T20:02:41.548Z,58.45
2024-02-08T20:05:09.254Z,59.79
2024-02-08T20:07:42.221Z,63.14
2024-02-08T20:10:15.131Z,65.58
2024-02-08T20:12:53.923Z,64.03
2024-02-08T20:15:28.997Z,62.02
2024-02-08T20:17:56.135Z,60.43
2024-02-08T20:20:25.728Z,58.30
2024-02-08T20:22:53.514Z,58.61
2024-02-08T20:25:28.796Z,59.11
2024-02-08T20:27:58.657Z,61.08
2024-02-08T20:30:26.548Z,65.79
2024-02-08T20:32:54.219Z,67.99
2024-02-08T20:35:21.213Z,66.01
2024-02-08T20:37:51.448Z,63.86
2024-02-08T20:40:23.457Z,61.29
2024-02-08T20:42:55.695Z,58.33
2024-02-08T20:45:28.019Z,59.00
2024-02-08T20:47:54.935Z,60.65
2024-02-08T20:50:22.376Z,64.48
2024-02-08T20:52:52.070Z,64.80
2024-02-08T20:55:21.405Z,63.16
2024-02-08T20:57:52.032Z,61.31
2024-02-08T21:00:24.097Z,59.62
2024-02-08T21:02:54.406Z,58.71
2024-02-08T21:05:22.520Z,60.63
2024-02-08T21:07:50.788Z,64.04
2024-02-08T21:10:26.982Z,64.49
2024-02-08T21:12:54.377Z,62.14
2024-02-08T21:15:24.439Z,60.65
2024-02-08T21:17:56.015Z,58.49
2024-02-08T21:20:24.107Z,59.75
2024-02-08T21:22:53.462Z,62.69
2024-02-08T21:25:21.410Z,65.16
2024-02-08T21:27:54.983Z,65.27
2024-02-08T21:30:22.943Z,63.19
2024-02-08T21:32:50.504Z,61.32
2024-02-08T21:35:18.701Z,60.56
2024-02-08T21:37:46.811Z,58.18
2024-02-08T21:40:14.396Z,58.03
2024-02-08T21:42:41.272Z,59.50
2024-02-08T21:45:13.439Z,61.73
2024-02-08T21:47:40.632Z,65.48
2024-02-08T21:50:08.974Z,64.89
2024-02-08T21:52:38.327Z,62.56
2024-02-08T21:55:08.494Z,60.85
2024-02-08T21:57:42.001Z,60.17
2024-02-08T22:00:12.955Z,58.63
2024-02-08T22:02:41.598Z,58.13
2024-02-08T22:05:12.587Z,62.06
2024-02-08T22:07:41.512Z,65.01
2024-02-08T22:10:13.516Z,63.83
2024-02-08T22:12:46.871Z,62.75
2024-02-08T22:15:15.062Z,61.16
2024-02-08T22:17:45.479Z,59.85
2024-02-08T22:20:13.593Z,57.91
2024-02-08T22:22:45.405Z,58.92
2024-02-08T22:25:17.037Z,60.65
2024-02-08T22:27:48.740Z,64.61
2024-02-08T22:30:16.061Z,65.18
2024-02-08T22:33:04.865Z,63.61
2024-02-08T22:35:31.666Z,62.11
2024-02-08T22:37:59.032Z,60.42
2024-02-08T22:40:26.482Z,58.43
2024-02-08T22:42:53.489Z,58.52
2024-02-08T22:45:22.630Z,60.96
2024-02-08T22:47:51.093Z,63.68
2024-02-08T22:50:18.585Z,63.74
2024-02-08T22:52:46.627Z,62.05
2024-02-08T22:55:16.737Z,59.83
2024-02-08T22:57:43.931Z,58.30
2024-02-08T23:00:25.228Z,60.57
2024-02-08T23:02:55.349Z,64.44
2024-02-08T23:05:28.090Z,64.37
2024-02-08T23:07:55.220Z,62.47
2024-02-08T23:10:23.331Z,60.81
2024-02-08T23:12:53.588Z,59.93
2024-02-08T23:15:21.560Z,59.27
2024-02-08T23:17:56.675Z,61.36
2024-02-08T23:20:23.765Z,64.72
2024-02-08T23:22:54.594Z,64.75
2024-02-08T23:25:24.690Z,63.28
2024-02-08T23:27:52.132Z,62.76
2024-02-08T23:30:20.851Z,61.67
2024-02-08T23:32:52.451Z,61.37
2024-02-08T23:35:20.477Z,61.35
2024-02-08T23:37:47.719Z,61.56
2024-02-08T23:40:16.050Z,61.05
2024-02-08T23:42:43.557Z,61.26
2024-02-08T23:45:16.538Z,61.26
2024-02-08T23:47:44.659Z,61.04
2024-02-08T23:50:16.919Z,60.77
2024-02-08T23:52:46.099Z,60.69
2024-02-08T23:55:14.998Z,60.72
2024-02-08T23:57:42.246Z,60.89
